Tiempo atmosférico en la estación meteorológica de Labastida, Araba/Álava (610 m.)



Fecha
DESCASC
Temp. máxima en grados centígrados (hora)
DESCASC
Temp. mínima en grados centígrados (hora)
DESCASC
Temp. media en grados centígrados
DESCASC
Racha de viento máxima en m/sg (hora)
DESCASC
Velocidad máxima media en intervalos de 10 minutos(hora)
DESCASC
Precipitaciones diarias en mm
DESCASC
Precipitaciones de 00:00 a 06:00 en mm
DESCASC
Precipitaciones de 06:00 a 12:00 en mm
DESCASC
Precipitaciones de 12:00 a 18:00 en mm
DESCASC
Precipitaciones de 18:00 a 24:00 en mm
DESCASC
24-01-2021 11.3 (15:30) 3.4 (08:00) 7.4 10.56 (03:40) 3.61 (03:10) 2 2 0 0 0
23-01-2021 10.6 (22:30) 5.4 (00:20) 8 11.67 (10:50) 3.33 (10:50) 2.2 0 0 2 0.2
22-01-2021 12.2 (04:00) 3.3 (22:00) 7.7 11.94 (04:50) 4.72 (04:50) 1.4 0.8 0.6 0 0
21-01-2021 14 (16:30) 6.7 (00:00) 10.3 12.5 (14:50) 5.28 (16:20) 0 0 0 0 0
20-01-2021 14 (14:40) 0.3 (00:00) 7.2 9.72 (13:00) 5.56 (12:40) 0 0 0 0 0
19-01-2021 3.8 (16:10) -0.7 (-00:0) 1.5 4.72 (15:00) 2.78 (15:00) 0 0 0 0 0
18-01-2021 12.2 (15:50) 1.8 (00:00) 7 5.83 (14:40) 2.22 (14:20) 0.4 0.2 0 0.2 0
17-01-2021 9.6 (14:30) -0.5 (-00:0) 4.6 6.11 (04:20) 2.78 (09:30) 0 0 0 0 0
16-01-2021 10.7 (15:10) -0.6 (-00:0) 5 5.28 (05:10) 2.5 (05:50) 0 0 0 0 0
15-01-2021 7.1 (16:30) 3.3 (00:00) 5.2 6.39 (16:50) 2.78 (16:40) 1.2 0 0.8 0.4 0
14-01-2021 6 (21:00) -2.3 (08:10) 1.9 5 (13:20) 2.78 (06:50) 0.2 0 0 0 0.2
13-01-2021 8.2 (16:50) -1.4 (-00:0) 3.4 6.11 (17:30) 2.78 (07:40) 0 0 0 0 0
12-01-2021 6.4 (15:40) -0.5 (-00:0) 3 3.89 (13:40) 1.94 (22:40) 0 0 0 0 0
11-01-2021 4.8 (15:20) -0.8 (-00:0) 2 16.67 (01:40) 8.06 (01:40) 0 0 0 0 0
10-01-2021 1.6 (12:30) -1.8 (00:00) -0.1 16.11 (22:40) 6.39 (20:50) 1.8 1.8 0 0 0
09-01-2021 -0.7 (01:30) -2.3 (-00:0) -1.5 8.89 (09:10) 4.72 (06:50) 1.8 0 0.6 0.2 1
08-01-2021 1.9 (12:30) -4.1 (-00:0) -1.1 5.83 (19:30) 2.78 (11:40) 0 0 0 0 0
07-01-2021 6.6 (15:50) -6.2 (-00:0) 0.2 6.11 (20:40) 3.06 (20:30) 0 0 0 0 0
06-01-2021 7.1 (14:40) -3.2 (-00:0) 1.9 3.33 (19:30) 2.5 (19:30) 0 0 0 0 0
05-01-2021 2.8 (14:40) -2.3 (-00:0) 0.3 3.33 (00:40) 1.67 (11:00) 0 0 0 0 0
04-01-2021 2.9 (15:00) -1.7 (-00:0) 0.6 6.94 (09:20) 3.06 (06:50) 0.4 0 0.2 0 0.2
03-01-2021 3.3 (13:20) -0.9 (-00:0) 1.2 7.22 (17:50) 3.89 (18:00) 6.4 0.8 1.8 3.2 0.6
02-01-2021 1.8 (13:50) -0.8 (-00:0) 0.5 9.44 (08:00) 3.61 (15:30) 10.2 7.2 2.6 0.4 0
01-01-2021 5.6 (13:10) -0.1 (00:00) 2.7 9.17 (16:10) 4.17 (16:20) 0.6 0 0 0 0.6
31-12-2020 6.5 (15:30) 2.7 (00:00) 4.6 9.44 (09:30) 4.17 (09:30) 5.6 0 0 4 1.6
30-12-2020 4.9 (15:10) 0.9 (00:00) 2.9 7.22 (22:40) 3.33 (22:20) 0.2 0.2 0 0 0
29-12-2020 6.6 (14:30) 2 (00:00) 4.3 8.89 (19:20) 3.61 (18:40) 0.2 0 0 0 0.2
28-12-2020 8.3 (16:00) 2.1 (00:00) 5.2 13.33 (04:30) 4.72 (01:20) 10.4 10.4 0 0 0
27-12-2020 7.2 (22:30) 1.2 (00:00) 4.2 13.06 (22:50) 4.72 (10:20) 0 0 0 0 0
26-12-2020 5.6 (14:50) 0.8 (00:00) 3.2 7.5 (08:10) 3.06 (08:00) 3 1.4 1 0.4 0.2

Gráficas

Temp. máximas Temp. mínimas Temp. medias Precipitaciones Rachas de viento máximas Velocidades máximas media en intervalos de 10 minutos

Datos horarios

Fecha y hora oficial Temperatura (ºC) Velocidad del viento (km/h) Dirección del viento Racha (km/h) Dirección de racha Precipitación (mm) Presión (hPa) Tendencia (hPa) Humedad (%)
2021-01-24 23:00:00 8.3 9 Norte 22 Norte 0 -- -- 76
2021-01-24 22:00:00 8.5 7 Norte 23 Noroeste 0 -- -- 75
2021-01-24 21:00:00 8.8 9 Noroeste 24 Oeste 0 -- -- 73
2021-01-24 20:00:00 8.7 8 Norte 18 Noroeste 0 -- -- 71
2021-01-24 19:00:00 8.7 8 Norte 22 Noroeste 0 -- -- 69
2021-01-24 18:00:00 9.2 8 Norte 29 Noroeste 0 -- -- 65
2021-01-24 17:00:00 10.4 7 Noroeste 24 Oeste 0 -- -- 58
2021-01-24 16:00:00 10.7 10 Noroeste 35 Sur 0 -- -- 59
2021-01-24 15:00:00 10.3 11 Noroeste 35 Norte 0 -- -- 60
2021-01-24 14:00:00 9.9 10 Norte 28 Sur 0 -- -- 63
2021-01-24 13:00:00 9.5 7 Noroeste 20 Oeste 0 -- -- 72
2021-01-24 12:00:00 8.3 9 Norte 21 Oeste 0 -- -- 73
2021-01-24 11:00:00 7.8 9 Noroeste 25 Norte 0 -- -- 75
2021-01-24 10:00:00 6 4 Nordeste 15 Oeste 0 -- -- 81
2021-01-24 09:00:00 4.3 4 Norte 8 Noroeste 0 -- -- 89
2021-01-24 08:00:00 3.4 0 Calma 14 Norte 0 -- -- 90
2021-01-24 07:00:00 4.9 5 Noroeste 20 Nordeste 0 -- -- 86
2021-01-24 06:00:00 5 9 Norte 26 Norte 0 -- -- 84
2021-01-24 05:00:00 6.1 7 Noroeste 27 Noroeste 0.2 -- -- 87
2021-01-24 04:00:00 6.2 8 Norte 38 Nordeste 1.8 -- -- 91
2021-01-24 03:00:00 8.6 10 Norte 32 Noroeste 0 -- -- 75
2021-01-24 02:00:00 8.5 8 Norte 26 Norte 0 -- -- 74
2021-01-24 01:00:00 8.8 12 Norte 27 Noroeste 0 -- -- 71
2021-01-24 00:00:00 9.3 10 Noroeste 33 Noroeste 0 -- -- 68
2021-01-23 23:00:00 10.5 12 Noroeste 26 Oeste 0.2 -- -- 64
2021-01-23 22:00:00 10.2 4 Norte 12 Oeste 0 -- -- 80
2021-01-23 21:00:00 7.5 2 Nordeste 20 Norte 0 -- -- 95
2021-01-23 20:00:00 10.1 8 Norte 31 Norte 0 -- -- 85
2021-01-23 19:00:00 9.8 12 Norte 24 Noroeste 0 -- -- 80
2021-01-23 18:00:00 9.5 9 Noroeste 28 Norte 0 -- -- 78
2021-01-23 17:00:00 8.8 10 Norte 24 Norte 0 -- -- 79
2021-01-23 16:00:00 8 9 Norte 28 Noroeste 0.2 -- -- 80
2021-01-23 15:00:00 6.9 10 Norte 26 Norte 1.2 -- -- 88
2021-01-23 14:00:00 7.4 9 Norte 25 Noroeste 0.2 -- -- 80
2021-01-23 13:00:00 6.9 9 Noroeste 30 Sudoeste 0.4 -- -- 78
2021-01-23 12:00:00 7.6 11 Sur 37 Sur 0 -- -- 73
2021-01-23 11:00:00 7.6 11 Norte 42 Oeste 0 -- -- 73
2021-01-23 10:00:00 6.9 12 Sudeste 35 Norte 0 -- -- 73
2021-01-23 09:00:00 6.4 8 Norte 28 Noroeste 0 -- -- 74
2021-01-23 08:00:00 6.1 8 Noroeste 27 Norte 0 -- -- 72
2021-01-23 07:00:00 6 10 Norte 32 Oeste 0 -- -- 73
2021-01-23 06:00:00 6 8 Norte 27 Oeste 0 -- -- 75
2021-01-23 05:00:00 6 6 Norte 27 Sudoeste 0 -- -- 75
2021-01-23 04:00:00 5.6 9 Norte 20 Noroeste 0 -- -- 76
2021-01-23 03:00:00 5.7 9 Norte 30 Oeste 0 -- -- 77
2021-01-23 02:00:00 5.5 8 Norte 23 Noroeste 0 -- -- 77
2021-01-23 01:00:00 5.4 10 Norte 24 Noroeste 0 -- -- 79
2021-01-23 00:00:00 5.5 8 Norte 24 Norte 0 -- -- 78
2021-01-22 23:00:00 5.6 9 Norte 17 Noroeste 0 -- -- 70
2021-01-22 22:00:00 3.3 2 Nordeste 10 Norte 0 -- -- 80
2021-01-22 21:00:00 5.5 4 Norte 10 Oeste 0 -- -- 72
2021-01-22 20:00:00 5.7 3 Norte 12 Oeste 0 -- -- 71
2021-01-22 19:00:00 6.6 4 Norte 18 Norte 0 -- -- 66
2021-01-22 18:00:00 7 6 Norte 25 Norte 0 -- -- 64
2021-01-22 17:00:00 8.5 9 Norte 28 Norte 0 -- -- 57
2021-01-22 16:00:00 9.3 10 Norte 27 Nordeste 0 -- -- 57
2021-01-22 15:00:00 7.7 8 Norte 22 Norte 0 -- -- 64
2021-01-22 14:00:00 6.6 10 Norte 38 Norte 0 -- -- 66
2021-01-22 13:00:00 7 15 Noroeste 41 Noroeste 0 -- -- 67
2021-01-22 12:00:00 6.8 7 Nordeste 28 Norte 0 -- -- 80
2021-01-22 11:00:00 5.9 9 Norte 30 Norte 0 -- -- 81
2021-01-22 10:00:00 5.9 12 Norte 35 Oeste 0 -- -- 80
2021-01-22 09:00:00 6.2 11 Norte 29 Oeste 0 -- -- 78
2021-01-22 08:00:00 6.2 9 Norte 36 Oeste 0.2 -- -- 77
2021-01-22 07:00:00 7 11 Norte 36 Norte 0.4 -- -- 78
2021-01-22 06:00:00 7.2 12 Norte 34 Noroeste 0.8 -- -- 82
2021-01-22 05:00:00 9.9 13 Sur 43 Sur 0 -- -- 72
2021-01-22 04:00:00 12.2 11 Sudoeste 35 Sudoeste 0 -- -- 62
2021-01-22 03:00:00 11.4 9 Sudoeste 37 Sudoeste 0 -- -- 67
2021-01-22 02:00:00 12 9 Sudoeste 25 Sudoeste 0 -- -- 59
2021-01-22 01:00:00 11 5 Sudoeste 21 Oeste 0 -- -- 69
2021-01-22 00:00:00 10.9 6 Norte 26 Noroeste 0 -- -- 69
2021-01-21 23:00:00 11.3 8 Este 31 Norte 0 -- -- 66
2021-01-21 22:00:00 11 9 Norte 23 Noroeste 0 -- -- 71
2021-01-21 21:00:00 11 8 Noroeste 26 Noroeste 0 -- -- 71
2021-01-21 20:00:00 11.2 7 Norte 28 Noroeste 0 -- -- 71
2021-01-21 19:00:00 11.2 7 Norte 29 Noroeste 0 -- -- 74
2021-01-21 18:00:00 11.8 6 Norte 22 Oeste 0 -- -- 73
2021-01-21 17:00:00 13 8 Sudoeste 42 Sudoeste 0 -- -- 69
2021-01-21 16:00:00 13.5 17 Sur 39 Sur 0 -- -- 64
2021-01-21 15:00:00 12.5 8 Norte 45 Noroeste 0 -- -- 63
2021-01-21 14:00:00 11.4 7 Noroeste 26 Noroeste 0 -- -- 65
2021-01-21 13:00:00 10.3 3 Sur 26 Oeste 0 -- -- 70
2021-01-21 12:00:00 10.8 10 Nordeste 28 Oeste 0 -- -- 69
2021-01-21 11:00:00 10.3 6 Norte 28 Oeste 0 -- -- 71
2021-01-21 10:00:00 8.6 5 Nordeste 27 Sur 0 -- -- 75
2021-01-21 09:00:00 8.3 5 Sudeste 17 Sur 0 -- -- 78
2021-01-21 08:00:00 8.2 5 Noroeste 14 Oeste 0 -- -- 80
2021-01-21 07:00:00 8.2 4 Sur 23 Noroeste 0 -- -- 80
2021-01-21 06:00:00 7.4 3 Norte 9 Sur 0 -- -- 84
2021-01-21 05:00:00 8.3 4 Sudoeste 17 Noroeste 0 -- -- 81
2021-01-21 04:00:00 8.5 5 Oeste 14 Sudoeste 0 -- -- 79
2021-01-21 03:00:00 8.9 5 Noroeste 13 Noroeste 0 -- -- 79
2021-01-21 02:00:00 9.5 7 Noroeste 17 Oeste 0 -- -- 76
2021-01-21 01:00:00 9.4 7 Noroeste 17 Noroeste 0 -- -- 75
2021-01-21 00:00:00 9.3 6 Noroeste 21 Noroeste 0 -- -- 73
2021-01-20 23:00:00 7.4 2 Oeste 12 Sudoeste 0 -- -- 80
2021-01-20 22:00:00 8.4 5 Sudoeste 12 Noroeste 0 -- -- 75
2021-01-20 21:00:00 8.8 4 Oeste 12 Sudoeste 0 -- -- 72
2021-01-20 20:00:00 8.9 5 Este 13 Este 0 -- -- 70
2021-01-20 19:00:00 9.6 4 Sudeste 14 Sudeste 0 -- -- 66
2021-01-20 18:00:00 10.3 4 Nordeste 10 Sudeste 0 -- -- 63
2021-01-20 17:00:00 11 4 Sur 31 Sur 0 -- -- 61
2021-01-20 16:00:00 12.2 16 Sur 32 Sudoeste 0 -- -- 53
2021-01-20 15:00:00 13.3 8 Sur 27 Sudoeste 0 -- -- 51
2021-01-20 14:00:00 12 6 Sur 22 Sudeste 0 -- -- 61
2021-01-20 13:00:00 9.7 17 Sudeste 35 Este 0 -- -- 65
2021-01-20 12:00:00 8.4 14 Este 32 Este 0 -- -- 67
2021-01-20 11:00:00 7.7 13 Este 32 Sudeste 0 -- -- 68
2021-01-20 10:00:00 6.8 10 Este 28 Sudeste 0 -- -- 72
2021-01-20 09:00:00 4.7 11 Este 21 Sudeste 0 -- -- 94
2021-01-20 08:00:00 0.7 4 Sudeste 6 Nordeste 0 -- -- 99
2021-01-20 07:00:00 0.8 2 Este 14 Este 0 -- -- 99
2021-01-20 06:00:00 0.3 3 Nordeste 9 Noroeste 0 -- -- 99
2021-01-20 05:00:00 1.4 3 Norte 6 Noroeste 0 -- -- 99
2021-01-20 04:00:00 1.5 0 Calma 8 Sur 0 -- -- 99
2021-01-20 03:00:00 1.5 4 Sudeste 8 Sudeste 0 -- -- 99
2021-01-20 02:00:00 1.4 4 Sudeste 13 Noroeste 0 -- -- 99
2021-01-20 01:00:00 1.3 8 Noroeste 12 Noroeste 0 -- -- 99
2021-01-20 00:00:00 1.4 3 Sur 9 Sur 0 -- -- 98
2021-01-19 23:00:00 1.7 6 Sur 10 Sur 0 -- -- 98
2021-01-19 22:00:00 1.6 4 Sur 8 Sur 0 -- -- 98
2021-01-19 21:00:00 1.8 3 Sudeste 6 Sudeste 0 -- -- 98
2021-01-19 20:00:00 1.9 5 Sur 8 Sudeste 0 -- -- 98
2021-01-19 19:00:00 2.1 4 Sudeste 8 Sur 0 -- -- 98
2021-01-19 18:00:00 2.4 4 Sur 10 Sur 0 -- -- 98
2021-01-19 17:00:00 3.3 7 Sur 13 Sur 0 -- -- 98
2021-01-19 16:00:00 3.7 6 Sur 15 Sudeste 0 -- -- 98
2021-01-19 15:00:00 3.3 10 Sur 17 Sudeste 0 -- -- 98
2021-01-19 14:00:00 3.2 5 Sudoeste 11 Sur 0 -- -- 98
2021-01-19 13:00:00 3.2 5 Sudoeste 10 Sur 0 -- -- 98
2021-01-19 12:00:00 1.9 3 Sur 11 Sudeste 0 -- -- 98
2021-01-19 11:00:00 1.2 4 Sur 14 Sur 0 -- -- 98
2021-01-19 10:00:00 0.4 0 Calma 9 Este 0 -- -- 98
2021-01-19 09:00:00 -0.7 2 Este 6 Oeste 0 -- -- 97
2021-01-19 08:00:00 -0.4 0 Calma 8 Nordeste 0 -- -- 97
2021-01-19 07:00:00 -0.3 5 Nordeste 8 Nordeste 0 -- -- 98
2021-01-19 06:00:00 0.6 3 Norte 7 Nordeste 0 -- -- 97
2021-01-19 05:00:00 -0.2 0 Calma 9 Noroeste 0 -- -- 95
2021-01-19 04:00:00 3.2 6 Noroeste 14 Norte 0 -- -- 93
2021-01-19 03:00:00 0.9 3 Nordeste 7 Norte 0 -- -- 97
2021-01-19 02:00:00 0.7 3 Norte 5 Norte 0 -- -- 97
2021-01-19 01:00:00 1.1 0 Calma 8 Oeste 0 -- -- 95
2021-01-19 00:00:00 2 2 Oeste 13 Oeste 0 -- -- 94
2021-01-18 23:00:00 1.8 2 Noroeste 5 Sudeste 0 -- -- 94
2021-01-18 22:00:00 3.8 0 Calma 4 Este 0 -- -- 93
2021-01-18 21:00:00 2.9 2 Norte 6 Nordeste 0 -- -- 93
2021-01-18 20:00:00 4 2 Nordeste 8 Norte 0 -- -- 90
2021-01-18 19:00:00 5.4 4 Norte 10 Oeste 0 -- -- 89
2021-01-18 18:00:00 8 3 Noroeste 11 Sudoeste 0 -- -- 80
2021-01-18 17:00:00 11.8 5 Noroeste 15 Oeste 0 -- -- 61
2021-01-18 16:00:00 11.9 7 Noroeste 15 Noroeste 0 -- -- 62
2021-01-18 15:00:00 11.6 5 Noroeste 21 Noroeste 0 -- -- 66
2021-01-18 14:00:00 10.8 8 Noroeste 18 Noroeste 0 -- -- 70
2021-01-18 13:00:00 10.6 7 Noroeste 17 Norte 0.2 -- -- 67
2021-01-18 12:00:00 8.4 4 Sudoeste 9 Oeste 0 -- -- 87
2021-01-18 11:00:00 7.1 4 Sur 7 Oeste 0 -- -- 92
2021-01-18 10:00:00 4.6 2 Noroeste 7 Sudoeste 0 -- -- 96
2021-01-18 09:00:00 4.6 0 Calma 8 Norte 0 -- -- 96
2021-01-18 08:00:00 5.2 4 Norte 12 Oeste 0 -- -- 94
2021-01-18 07:00:00 6 5 Noroeste 12 Oeste 0 -- -- 93
2021-01-18 06:00:00 4.5 3 Noroeste 9 Norte 0 -- -- 97
2021-01-18 05:00:00 4.1 5 Noroeste 9 Norte 0 -- -- 98
2021-01-18 04:00:00 4 4 Noroeste 11 Oeste 0 -- -- 97
2021-01-18 03:00:00 5 5 Oeste 10 Norte 0 -- -- 97
2021-01-18 02:00:00 5.3 5 Noroeste 13 Noroeste 0 -- -- 95
2021-01-18 01:00:00 7.2 7 Norte 17 Norte 0.2 -- -- 91
2021-01-18 00:00:00 5.9 6 Noroeste 9 Oeste 0 -- -- 94
2021-01-17 23:00:00 4.8 5 Oeste 15 Oeste 0 -- -- 93
2021-01-17 22:00:00 7.9 7 Norte 12 Norte 0 -- -- 89
2021-01-17 21:00:00 7.2 2 Norte 6 Norte 0 -- -- 92
2021-01-17 20:00:00 7.3 2 Oeste 7 Oeste 0 -- -- 86
2021-01-17 19:00:00 5.9 2 Oeste 7 Noroeste 0 -- -- 89
2021-01-17 18:00:00 7.9 0 Calma 8 Norte 0 -- -- 81
2021-01-17 17:00:00 8.7 3 Oeste 9 Noroeste 0 -- -- 77
2021-01-17 16:00:00 9.4 4 Oeste 9 Oeste 0 -- -- 72
2021-01-17 15:00:00 9 5 Sudoeste 17 Sur 0 -- -- 70
2021-01-17 14:00:00 8.8 8 Sur 19 Oeste 0 -- -- 67
2021-01-17 13:00:00 8 6 Sudoeste 19 Noroeste 0 -- -- 66
2021-01-17 12:00:00 6 8 Sudoeste 17 Oeste 0 -- -- 70
2021-01-17 11:00:00 4 7 Oeste 14 Oeste 0 -- -- 70
2021-01-17 10:00:00 4.2 5 Noroeste 17 Oeste 0 -- -- 66
2021-01-17 09:00:00 3.9 6 Oeste 15 Norte 0 -- -- 67
2021-01-17 08:00:00 2 3 Norte 12 Norte 0 -- -- 76
2021-01-17 07:00:00 1.9 4 Oeste 12 Oeste 0 -- -- 75
2021-01-17 06:00:00 5.4 6 Noroeste 15 Noroeste 0 -- -- 56
2021-01-17 05:00:00 4.9 5 Norte 22 Noroeste 0 -- -- 57
2021-01-17 04:00:00 5.7 8 Norte 20 Noroeste 0 -- -- 52
2021-01-17 03:00:00 4.8 6 Norte 17 Norte 0 -- -- 55
2021-01-17 02:00:00 0.2 2 Noroeste 8 Norte 0 -- -- 81
2021-01-17 01:00:00 0.5 0 Calma 6 Norte 0 -- -- 77
2021-01-17 00:00:00 1.8 3 Nordeste 6 Norte 0 -- -- 70
2021-01-16 23:00:00 -0.2 0 Calma 6 Norte 0 -- -- 87
2021-01-16 22:00:00 0.9 3 Noroeste 5 Sur 0 -- -- 81
2021-01-16 21:00:00 1.1 2 Norte 5 Noroeste 0 -- -- 83
2021-01-16 20:00:00 2.9 4 Noroeste 9 Norte 0 -- -- 79
2021-01-16 19:00:00 4.4 7 Noroeste 12 Oeste 0 -- -- 76
2021-01-16 18:00:00 6.9 5 Noroeste 12 Oeste 0 -- -- 72
2021-01-16 17:00:00 9.7 6 Oeste 13 Sudoeste 0 -- -- 59
2021-01-16 16:00:00 10.7 6 Oeste 14 Sudoeste 0 -- -- 58
2021-01-16 15:00:00 10.6 6 Sudoeste 15 Oeste 0 -- -- 58
2021-01-16 14:00:00 9.8 6 Oeste 17 Sudoeste 0 -- -- 56
2021-01-16 13:00:00 9 4 Sudoeste 10 Sudoeste 0 -- -- 61
2021-01-16 12:00:00 7.2 4 Sudoeste 9 Oeste 0 -- -- 68
2021-01-16 11:00:00 4.9 0 Calma 9 Oeste 0 -- -- 79
2021-01-16 10:00:00 0.8 4 Oeste 7 Noroeste 0 -- -- 91
2021-01-16 09:00:00 -0.1 6 Noroeste 9 Oeste 0 -- -- 95
2021-01-16 08:00:00 -0.3 6 Oeste 9 Oeste 0 -- -- 93
2021-01-16 07:00:00 -0.2 3 Norte 8 Sudoeste 0 -- -- 93
2021-01-16 06:00:00 2 7 Sudoeste 19 Norte 0 -- -- 88
2021-01-16 05:00:00 3.3 6 Noroeste 14 Noroeste 0 -- -- 85
2021-01-16 04:00:00 3.9 5 Norte 13 Norte 0 -- -- 83
2021-01-16 03:00:00 4.2 6 Norte 10 Norte 0 -- -- 82
2021-01-16 02:00:00 3.3 4 Norte 8 Oeste 0 -- -- 88
2021-01-16 01:00:00 3.5 3 Noroeste 5 Nordeste 0 -- -- 86
2021-01-16 00:00:00 3.3 0 Calma 8 Sur 0 -- -- 88
2021-01-15 23:00:00 4.3 2 Sudoeste 13 Norte 0 -- -- 83
2021-01-15 22:00:00 4.8 3 Norte 14 Noroeste 0 -- -- 80
2021-01-15 21:00:00 4.8 3 Sudoeste 12 Nordeste 0 -- -- 83
2021-01-15 20:00:00 5.3 5 Noroeste 13 Norte 0 -- -- 81
2021-01-15 19:00:00 5.3 4 Norte 14 Norte 0 -- -- 81
2021-01-15 18:00:00 5.3 5 Norte 18 Norte 0 -- -- 79
2021-01-15 17:00:00 5.9 8 Norte 23 Norte 0 -- -- 77
2021-01-15 16:00:00 6.4 4 Norte 21 Norte 0 -- -- 81
2021-01-15 15:00:00 6.8 8 Noroeste 19 Norte 0.2 -- -- 79
2021-01-15 14:00:00 6.3 7 Noroeste 17 Noroeste 0 -- -- 83
2021-01-15 13:00:00 5.7 5 Oeste 13 Oeste 0.2 -- -- 86
2021-01-15 12:00:00 5.4 4 Norte 17 Noroeste 0 -- -- 89
2021-01-15 11:00:00 4.5 8 Noroeste 16 Noroeste 0 -- -- 93
2021-01-15 10:00:00 3.6 7 Norte 12 Norte 0.6 -- -- 94
2021-01-15 09:00:00 3.9 5 Norte 11 Norte 0.2 -- -- 92
2021-01-15 08:00:00 3.4 3 Norte 10 Noroeste 0 -- -- 93
2021-01-15 07:00:00 4.2 4 Noroeste 13 Noroeste 0 -- -- 89
2021-01-15 06:00:00 4.5 4 Norte 10 Norte 0 -- -- 88
2021-01-15 05:00:00 4.3 2 Norte 12 Norte 0 -- -- 89
2021-01-15 04:00:00 4.5 3 Sudoeste 12 Noroeste 0 -- -- 87
2021-01-15 03:00:00 4.7 3 Norte 8 Noroeste 0 -- -- 90
2021-01-15 02:00:00 5.1 4 Norte 11 Norte 0 -- -- 91
2021-01-15 01:00:00 5.1 5 Norte 13 Norte 0 -- -- 91
2021-01-15 00:00:00 4.9 5 Noroeste 16 Noroeste 0 -- -- 92
2021-01-14 23:00:00 5.8 4 Norte 14 Norte 0 -- -- 91
2021-01-14 22:00:00 5.9 3 Norte 13 Norte 0.2 -- -- 92
2021-01-14 21:00:00 6 6 Nordeste 17 Norte 0 -- -- 90
2021-01-14 20:00:00 5.2 3 Norte 8 Norte 0 -- -- 89
2021-01-14 19:00:00 5.4 5 Nordeste 13 Norte 0 -- -- 87
2021-01-14 18:00:00 4.8 5 Nordeste 11 Norte 0 -- -- 86
2021-01-14 17:00:00 3.5 0 Calma 9 Sudoeste 0 -- -- 87
2021-01-14 16:00:00 3.2 3 Noroeste 13 Oeste 0 -- -- 83
2021-01-14 15:00:00 4 5 Este 16 Sur 0 -- -- 81
2021-01-14 14:00:00 4.8 6 Sudoeste 18 Sudoeste 0 -- -- 80
2021-01-14 13:00:00 3.9 7 Oeste 15 Oeste 0 -- -- 82
2021-01-14 12:00:00 2.8 5 Noroeste 17 Oeste 0 -- -- 85
2021-01-14 11:00:00 0.7 9 Sudoeste 16 Sudoeste 0 -- -- 90
2021-01-14 10:00:00 -0.5 6 Norte 11 Oeste 0 -- -- 94
2021-01-14 09:00:00 0.1 4 Norte 15 Oeste 0 -- -- 97
2021-01-14 08:00:00 -2.2 5 Noroeste 14 Norte 0 -- -- 95
2021-01-14 07:00:00 -0.8 6 Noroeste 15 Noroeste 0 -- -- 95
2021-01-14 06:00:00 -0.8 5 Noroeste 12 Noroeste 0 -- -- 95
2021-01-14 05:00:00 0.7 4 Noroeste 15 Noroeste 0 -- -- 91
2021-01-14 04:00:00 0.5 6 Norte 14 Norte 0 -- -- 95
2021-01-14 03:00:00 -0.8 6 Noroeste 13 Oeste 0 -- -- 95
2021-01-14 02:00:00 -0.8 5 Noroeste 10 Noroeste 0 -- -- 95
2021-01-14 01:00:00 1.1 7 Noroeste 14 Noroeste 0 -- -- 90
2021-01-14 00:00:00 1.7 7 Norte 13 Noroeste 0 -- -- 90
2021-01-13 23:00:00 0.2 8 Noroeste 12 Oeste 0 -- -- 94
2021-01-13 22:00:00 1.1 4 Noroeste 10 Oeste 0 -- -- 90
2021-01-13 21:00:00 1.2 2 Nordeste 9 Noroeste 0 -- -- 91
2021-01-13 20:00:00 1.8 4 Norte 9 Nordeste 0 -- -- 89
2021-01-13 19:00:00 2.5 6 Nordeste 9 Nordeste 0 -- -- 86
2021-01-13 18:00:00 5.5 4 Noroeste 22 Noroeste 0 -- -- 74
2021-01-13 17:00:00 7.6 6 Oeste 15 Oeste 0 -- -- 66
2021-01-13 16:00:00 7.7 8 Noroeste 18 Norte 0 -- -- 67
2021-01-13 15:00:00 5.6 6 Oeste 11 Oeste 0 -- -- 78
2021-01-13 14:00:00 4.6 5 Oeste 8 Oeste 0 -- -- 80
2021-01-13 13:00:00 4.8 3 Oeste 8 Noroeste 0 -- -- 77
2021-01-13 12:00:00 4.7 4 Norte 10 Norte 0 -- -- 73
2021-01-13 11:00:00 3.1 5 Noroeste 9 Noroeste 0 -- -- 80
2021-01-13 10:00:00 1.7 7 Noroeste 11 Noroeste 0 -- -- 84
2021-01-13 09:00:00 0.4 5 Sur 15 Noroeste 0 -- -- 88
2021-01-13 08:00:00 -0.2 8 Noroeste 14 Noroeste 0 -- -- 91
2021-01-13 07:00:00 0.7 5 Noroeste 13 Noroeste 0 -- -- 90
2021-01-13 06:00:00 -1.3 3 Oeste 13 Oeste 0 -- -- 92
2021-01-13 05:00:00 0.4 6 Noroeste 13 Oeste 0 -- -- 85
2021-01-13 04:00:00 -1 6 Noroeste 12 Noroeste 0 -- -- 90
2021-01-13 03:00:00 -0.7 8 Noroeste 13 Noroeste 0 -- -- 90
2021-01-13 02:00:00 -0.1 0 Calma 9 Noroeste 0 -- -- 89
2021-01-13 01:00:00 -0.4 3 Noroeste 10 Noroeste 0 -- -- 91
2021-01-13 00:00:00 -0.5 7 Noroeste 12 Noroeste 0 -- -- 90
2021-01-12 23:00:00 -0.2 7 Noroeste 11 Noroeste 0 -- -- 88
2021-01-12 22:00:00 -0.4 5 Norte 10 Oeste 0 -- -- 88
2021-01-12 21:00:00 0.8 5 Noroeste 9 Oeste 0 -- -- 86
2021-01-12 20:00:00 0.4 3 Noroeste 6 Noroeste 0 -- -- 91
2021-01-12 19:00:00 1.1 4 Noroeste 9 Noroeste 0 -- -- 86
2021-01-12 18:00:00 2.8 3 Noroeste 14 Sudoeste 0 -- -- 79
2021-01-12 17:00:00 5.3 5 Sur 14 Oeste 0 -- -- 69
2021-01-12 16:00:00 5.8 5 Sur 14 Sur 0 -- -- 68
2021-01-12 15:00:00 5 4 Sudeste 13 Sudoeste 0 -- -- 70
2021-01-12 14:00:00 4.5 5 Oeste 14 Oeste 0 -- -- 71
2021-01-12 13:00:00 3.5 5 Sur 10 Sur 0 -- -- 74
2021-01-12 12:00:00 2.2 4 Sudoeste 8 Oeste 0 -- -- 80
2021-01-12 11:00:00 1.3 4 Oeste 7 Oeste 0 -- -- 84
2021-01-12 10:00:00 0.7 0 Calma 5 Noroeste 0 -- -- 86
2021-01-12 09:00:00 0.2 3 Noroeste 8 Oeste 0 -- -- 86
2021-01-12 08:00:00 0.1 4 Noroeste 9 Noroeste 0 -- -- 84
2021-01-12 07:00:00 -0.1 4 Norte 9 Noroeste 0 -- -- 86
2021-01-12 06:00:00 -0.3 5 Noroeste 11 Oeste 0 -- -- 86
2021-01-12 05:00:00 0.3 5 Oeste 9 Oeste 0 -- -- 83
2021-01-12 04:00:00 0.3 4 Noroeste 10 Noroeste 0 -- -- 84
2021-01-12 03:00:00 0 6 Noroeste 13 Oeste 0 -- -- 88
2021-01-12 02:00:00 0.7 4 Sudoeste 12 Oeste 0 -- -- 85
2021-01-12 01:00:00 0 4 Noroeste 6 Norte 0 -- -- 88
2021-01-12 00:00:00 0.1 3 Noroeste 7 Norte 0 -- -- 88
2021-01-11 23:00:00 0.2 4 Noroeste 8 Noroeste 0 -- -- 89
2021-01-11 22:00:00 -0.1 4 Noroeste 9 Noroeste 0 -- -- 88
2021-01-11 21:00:00 0.8 3 Norte 9 Oeste 0 -- -- 85
2021-01-11 20:00:00 1.2 4 Oeste 17 Oeste 0 -- -- 80
2021-01-11 19:00:00 1.6 5 Noroeste 12 Noroeste 0 -- -- 76
2021-01-11 18:00:00 2 4 Noroeste 18 Noroeste 0 -- -- 71
2021-01-11 17:00:00 2.7 7 Norte 33 Oeste 0 -- -- 68
2021-01-11 16:00:00 3.1 6 Norte 28 Nordeste 0 -- -- 69
2021-01-11 15:00:00 4.7 8 Noroeste 27 Oeste 0 -- -- 59
2021-01-11 14:00:00 3.7 8 Noroeste 48 Nordeste 0 -- -- 64
2021-01-11 13:00:00 4.4 10 Norte 41 Norte 0 -- -- 63
2021-01-11 12:00:00 3.3 25 Norte 46 Noroeste 0 -- -- 67
2021-01-11 11:00:00 2.7 17 Norte 43 Norte 0 -- -- 68
2021-01-11 10:00:00 1.6 24 Norte 50 Norte 0 -- -- 69
2021-01-11 09:00:00 1.3 28 Norte 52 Norte 0 -- -- 73
2021-01-11 08:00:00 1.3 26 Norte 59 Norte 0 -- -- 76
2021-01-11 07:00:00 1 24 Norte 58 Noroeste 0 -- -- 77
2021-01-11 06:00:00 0.8 23 Norte 56 Norte 0 -- -- 71
2021-01-11 05:00:00 0.9 27 Norte 55 Norte 0 -- -- 71
2021-01-11 04:00:00 1 26 Norte 53 Norte 0 -- -- 73
2021-01-11 03:00:00 0.9 24 Norte 56 Norte 0 -- -- 74
2021-01-11 02:00:00 0.8 27 Norte 60 Norte 0 -- -- 71
2021-01-11 01:00:00 0.8 23 Norte 57 Norte 0 -- -- 71
2021-01-11 00:00:00 1 21 Norte 48 Norte 0 -- -- 72
2021-01-10 23:00:00 0.9 19 Norte 58 Noroeste 0 -- -- 73
2021-01-10 22:00:00 0.7 17 Norte 44 Norte 0 -- -- 74
2021-01-10 21:00:00 0.5 19 Norte 46 Norte 0 -- -- 72
2021-01-10 20:00:00 0 13 Norte 30 Noroeste 0 -- -- 72
2021-01-10 19:00:00 0.2 9 Noroeste 26 Nordeste 0 -- -- 75
2021-01-10 18:00:00 0.3 14 Norte 35 Norte 0 -- -- 80
2021-01-10 17:00:00 0.8 11 Norte 42 Norte 0 -- -- 77
2021-01-10 16:00:00 1.1 9 Norte 34 Nordeste 0 -- -- 78
2021-01-10 15:00:00 1.2 12 Norte 45 Este 0 -- -- 77
2021-01-10 14:00:00 1.4 18 Norte 42 Norte 0 -- -- 74
2021-01-10 13:00:00 1.3 10 Oeste 35 Norte 0 -- -- 76
2021-01-10 12:00:00 1.2 12 Norte 38 Noroeste 0 -- -- 79
2021-01-10 11:00:00 0.9 13 Norte 31 Norte 0 -- -- 82
2021-01-10 10:00:00 0.9 13 Noroeste 31 Norte 0 -- -- 82
2021-01-10 09:00:00 0.3 10 Norte 33 Nordeste 0 -- -- 94
2021-01-10 08:00:00 0.2 15 Norte 32 Norte 0 -- -- 95
2021-01-10 07:00:00 0.1 16 Norte 28 Nordeste 0 -- -- 95
2021-01-10 06:00:00 0 13 Norte 33 Norte 0.4 -- -- 96
2021-01-10 05:00:00 -0.1 17 Norte 33 Norte 0.2 -- -- 95
2021-01-10 04:00:00 -0.5 7 Nordeste 20 Noroeste 0.2 -- -- 95
2021-01-10 03:00:00 -1.3 3 Sur 9 Este 0.4 -- -- 97
2021-01-10 02:00:00 -1.5 4 Sur 8 Sur 0 -- -- 97
2021-01-10 01:00:00 -1.7 3 Sudeste 8 Sudoeste 0.6 -- -- 96
2021-01-10 00:00:00 -1.8 3 Oeste 9 Sudoeste 0 -- -- 96
2021-01-09 23:00:00 -1.8 4 Sur 7 Sudoeste 0.2 -- -- 95
2021-01-09 22:00:00 -1.8 0 Calma 4 Sur 0 -- -- 95
2021-01-09 21:00:00 -2 0 Calma 7 Sudeste 0 -- -- 96
2021-01-09 20:00:00 -1.3 5 Sudeste 15 Norte 0.6 -- -- 91
2021-01-09 19:00:00 -1.7 0 Calma 20 Sur 0.2 -- -- 93
2021-01-09 18:00:00 -1.4 4 Oeste 15 Noroeste 0 -- -- 90
2021-01-09 17:00:00 -1.5 8 Sur 18 Sudoeste 0.2 -- -- 91
2021-01-09 16:00:00 -1.5 7 Sudoeste 19 Sudoeste 0 -- -- 91
2021-01-09 15:00:00 -1.1 15 Sudoeste 26 Sudoeste 0 -- -- 85
2021-01-09 14:00:00 -1.2 9 Sudoeste 21 Sudeste 0 -- -- 84
2021-01-09 13:00:00 -1.4 12 Sudoeste 31 Sur 0 -- -- 87
2021-01-09 12:00:00 -1.5 4 Sudeste 12 Sur 0.6 -- -- 91
2021-01-09 11:00:00 -2.3 7 Sudoeste 25 Oeste 0 -- -- 92
2021-01-09 10:00:00 -1.6 10 Sudoeste 32 Norte 0 -- -- 79
2021-01-09 09:00:00 -1.4 9 Nordeste 28 Norte 0 -- -- 74
2021-01-09 08:00:00 -1.1 9 Nordeste 29 Nordeste 0 -- -- 71
2021-01-09 07:00:00 -1.2 16 Nordeste 31 Nordeste 0 -- -- 76
2021-01-09 06:00:00 -1.7 3 Sudoeste 8 Sudoeste 0 -- -- 84
2021-01-09 05:00:00 -1.4 3 Sur 6 Noroeste 0 -- -- 80
2021-01-09 04:00:00 -1.6 2 Sudoeste 7 Norte 0 -- -- 82
2021-01-09 03:00:00 -1.2 4 Oeste 9 Norte 0 -- -- 77
2021-01-09 02:00:00 -1 5 Noroeste 21 Nordeste 0 -- -- 74
2021-01-09 01:00:00 -0.9 10 Nordeste 21 Nordeste 0 -- -- 73
2021-01-09 00:00:00 -1 6 Sur 17 Norte 0 -- -- 74
2021-01-08 23:00:00 -0.8 9 Norte 19 Norte 0 -- -- 72
2021-01-08 22:00:00 -0.6 4 Noroeste 12 Noroeste 0 -- -- 71
2021-01-08 21:00:00 -0.8 4 Sudeste 20 Norte 0 -- -- 77
2021-01-08 20:00:00 -0.4 5 Nordeste 21 Norte 0 -- -- 73
2021-01-08 19:00:00 -0.5 5 Sudoeste 17 Este 0 -- -- 75
2021-01-08 18:00:00 0 5 Nordeste 15 Este 0 -- -- 71
2021-01-08 17:00:00 0.6 4 Oeste 13 Sur 0 -- -- 67
2021-01-08 16:00:00 0.4 8 Sur 13 Sur 0 -- -- 74
2021-01-08 15:00:00 0.9 4 Sur 13 Sur 0 -- -- 71
2021-01-08 14:00:00 0.7 4 Sudeste 15 Sur 0 -- -- 68
2021-01-08 13:00:00 -0.3 8 Sur 15 Sudoeste 0 -- -- 74
2021-01-08 12:00:00 -0.7 9 Sur 18 Sudoeste 0 -- -- 76
2021-01-08 11:00:00 -0.6 4 Noroeste 16 Oeste 0 -- -- 72
2021-01-08 10:00:00 -1.4 5 Norte 19 Norte 0 -- -- 75
2021-01-08 09:00:00 -2.5 3 Noroeste 21 Norte 0 -- -- 80
2021-01-08 08:00:00 -2.8 5 Noroeste 16 Oeste 0 -- -- 81
2021-01-08 07:00:00 -3.1 5 Oeste 14 Nordeste 0 -- -- 82
2021-01-08 06:00:00 -3.6 4 Norte 10 Nordeste 0 -- -- 83
2021-01-08 05:00:00 -3.6 3 Nordeste 8 Noroeste 0 -- -- 84
2021-01-08 04:00:00 -2 4 Noroeste 13 Sudoeste 0 -- -- 76
2021-01-08 03:00:00 -1.1 4 Oeste 15 Noroeste 0 -- -- 70
2021-01-08 02:00:00 -0.8 4 Oeste 13 Noroeste 0 -- -- 70
2021-01-08 01:00:00 -0.8 5 Noroeste 19 Noroeste 0 -- -- 74
2021-01-08 00:00:00 -0.6 4 Norte 19 Noroeste 0 -- -- 73
2021-01-07 23:00:00 -0.4 4 Noroeste 19 Noroeste 0 -- -- 74
2021-01-07 22:00:00 0.1 6 Norte 20 Noroeste 0 -- -- 72
2021-01-07 21:00:00 0.5 6 Noroeste 22 Noroeste 0 -- -- 70
2021-01-07 20:00:00 0.9 8 Noroeste 17 Noroeste 0 -- -- 70
2021-01-07 19:00:00 0.5 6 Noroeste 17 Oeste 0 -- -- 73
2021-01-07 18:00:00 0.7 6 Noroeste 10 Noroeste 0 -- -- 70
2021-01-07 17:00:00 3.1 0 Calma 6 Sudoeste 0 -- -- 71
2021-01-07 16:00:00 6.1 0 Calma 6 Sudeste 0 -- -- 62
2021-01-07 15:00:00 3.3 2 Sur 4 Sur 0 -- -- 75
2021-01-07 14:00:00 0.7 2 Sur 5 Sur 0 -- -- 86
2021-01-07 13:00:00 -0.7 0 Calma 5 Sur 0 -- -- 91
2021-01-07 12:00:00 -1.9 3 Sur 5 Sudoeste 0 -- -- 90
2021-01-07 11:00:00 -4.5 0 Calma 5 Sur 0 -- -- 93
2021-01-07 10:00:00 -5.9 0 Calma 3 Sur 0 -- -- 94
2021-01-07 09:00:00 -6.2 0 Calma 2 Este 0 -- -- 95
2021-01-07 08:00:00 -5.8 0 Calma 4 Norte 0 -- -- 95
2021-01-07 07:00:00 -6.1 2 Sur 6 Sudeste 0 -- -- 95
2021-01-07 06:00:00 -5.5 0 Calma 4 Nordeste 0 -- -- 95
2021-01-07 05:00:00 -5.1 0 Calma 4 Nordeste 0 -- -- 96
2021-01-07 04:00:00 -4.8 0 Calma 3 Noroeste 0 -- -- 94
2021-01-07 03:00:00 -4.3 3 Nordeste 4 Nordeste 0 -- -- 95
2021-01-07 02:00:00 -4.2 0 Calma 4 Nordeste 0 -- -- 95
2021-01-07 01:00:00 -3.6 2 Norte 6 Nordeste 0 -- -- 95
2021-01-07 00:00:00 -3.2 2 Norte 5 Norte 0 -- -- 91
2021-01-06 23:00:00 -2.4 4 Norte 7 Noroeste 0 -- -- 91
2021-01-06 22:00:00 -2.2 3 Nordeste 9 Nordeste 0 -- -- 89
2021-01-06 21:00:00 -1.1 5 Nordeste 10 Oeste 0 -- -- 85
2021-01-06 20:00:00 0.5 7 Norte 12 Norte 0 -- -- 77
2021-01-06 19:00:00 1.3 8 Norte 12 Norte 0 -- -- 78
2021-01-06 18:00:00 0.8 4 Norte 6 Norte 0 -- -- 84
2021-01-06 17:00:00 5.6 2 Noroeste 5 Oeste 0 -- -- 53
2021-01-06 16:00:00 5.8 3 Sudoeste 10 Sudoeste 0 -- -- 52
2021-01-06 15:00:00 7.1 0 Calma 6 Sur 0 -- -- 58
2021-01-06 14:00:00 6.3 3 Sur 6 Sur 0 -- -- 58
2021-01-06 13:00:00 4.8 3 Sur 6 Sur 0 -- -- 69
2021-01-06 12:00:00 3.1 3 Sur 5 Sur 0 -- -- 77
2021-01-06 11:00:00 3 2 Sudoeste 3 Oeste 0 -- -- 75
2021-01-06 10:00:00 0.7 0 Calma 4 Norte 0 -- -- 84
2021-01-06 09:00:00 -0.7 3 Norte 7 Noroeste 0 -- -- 94
2021-01-06 08:00:00 -0.4 4 Noroeste 7 Oeste 0 -- -- 94
2021-01-06 07:00:00 -0.2 4 Norte 8 Oeste 0 -- -- 93
2021-01-06 06:00:00 -0.4 0 Calma 4 Norte 0 -- -- 92
2021-01-06 05:00:00 -0.2 2 Norte 6 Norte 0 -- -- 90
2021-01-06 04:00:00 0.4 3 Norte 7 Noroeste 0 -- -- 88
2021-01-06 03:00:00 0.5 3 Nordeste 9 Sudeste 0 -- -- 85
2021-01-06 02:00:00 0 2 Este 4 Este 0 -- -- 93
2021-01-06 01:00:00 0.1 0 Calma 4 Norte 0 -- -- 93
2021-01-06 00:00:00 0.4 0 Calma 7 Noroeste 0 -- -- 93
2021-01-05 23:00:00 0.2 3 Norte 5 Oeste 0 -- -- 93
2021-01-05 22:00:00 0.2 0 Calma 6 Norte 0 -- -- 92
2021-01-05 21:00:00 0.2 3 Norte 5 Sur 0 -- -- 91
2021-01-05 20:00:00 1 3 Norte 8 Oeste 0 -- -- 88
2021-01-05 19:00:00 1.3 4 Noroeste 8 Noroeste 0 -- -- 85
2021-01-05 18:00:00 -0.2 3 Noroeste 5 Norte 0 -- -- 89
2021-01-05 17:00:00 1.5 2 Noroeste 6 Sudoeste 0 -- -- 80
2021-01-05 16:00:00 1.7 3 Sudoeste 9 Oeste 0 -- -- 79
2021-01-05 15:00:00 2.6 0 Calma 12 Oeste 0 -- -- 78
2021-01-05 14:00:00 1.6 5 Oeste 10 Oeste 0 -- -- 80
2021-01-05 13:00:00 2.5 4 Sudoeste 10 Oeste 0 -- -- 79
2021-01-05 12:00:00 1.1 4 Oeste 10 Sur 0 -- -- 81
2021-01-05 11:00:00 0.8 6 Sudoeste 11 Sudoeste 0 -- -- 84
2021-01-05 10:00:00 -0.3 5 Oeste 8 Oeste 0 -- -- 88
2021-01-05 09:00:00 0.2 4 Norte 8 Noroeste 0 -- -- 87
2021-01-05 08:00:00 -0.5 3 Noroeste 8 Norte 0 -- -- 90
2021-01-05 07:00:00 -0.8 4 Sudoeste 9 Norte 0 -- -- 90
2021-01-05 06:00:00 -1 2 Noroeste 8 Oeste 0 -- -- 91
2021-01-05 05:00:00 -0.8 2 Noroeste 9 Noroeste 0 -- -- 90
2021-01-05 04:00:00 -1.3 4 Norte 6 Norte 0 -- -- 95
2021-01-05 03:00:00 -1.6 3 Norte 9 Oeste 0 -- -- 93
2021-01-05 02:00:00 -1.9 5 Norte 9 Norte 0 -- -- 95
2021-01-05 01:00:00 -1.2 5 Sudoeste 12 Norte 0 -- -- 90
2021-01-05 00:00:00 -1.7 0 Calma 8 Noroeste 0 -- -- 94
2021-01-04 23:00:00 -0.1 3 Norte 18 Noroeste 0 -- -- 89
2021-01-04 22:00:00 0.3 6 Norte 12 Noroeste 0 -- -- 90
2021-01-04 21:00:00 0.1 3 Norte 13 Noroeste 0.2 -- -- 92
2021-01-04 20:00:00 0.6 6 Norte 14 Noroeste 0 -- -- 86
2021-01-04 19:00:00 0.6 4 Norte 12 Oeste 0 -- -- 89
2021-01-04 18:00:00 1.1 6 Noroeste 18 Norte 0 -- -- 86
2021-01-04 17:00:00 1.5 6 Noroeste 13 Noroeste 0 -- -- 85
2021-01-04 16:00:00 1.4 5 Norte 23 Oeste 0 -- -- 85
2021-01-04 15:00:00 2.9 6 Oeste 20 Oeste 0 -- -- 75
2021-01-04 14:00:00 1 5 Norte 18 Norte 0 -- -- 85
2021-01-04 13:00:00 0.8 7 Norte 20 Noroeste 0 -- -- 85
2021-01-04 12:00:00 0.8 8 Noroeste 24 Noroeste 0 -- -- 82
2021-01-04 11:00:00 -0.3 8 Norte 21 Noroeste 0.2 -- -- 91
2021-01-04 10:00:00 -0.8 10 Norte 25 Noroeste 0 -- -- 92
2021-01-04 09:00:00 -0.1 9 Norte 24 Norte 0 -- -- 81
2021-01-04 08:00:00 -0.5 8 Norte 22 Noroeste 0 -- -- 82
2021-01-04 07:00:00 0.2 9 Norte 23 Norte 0 -- -- 79
2021-01-04 06:00:00 0.1 9 Norte 18 Norte 0 -- -- 80
2021-01-04 05:00:00 0.3 9 Noroeste 19 Noroeste 0 -- -- 81
2021-01-04 04:00:00 0.1 7 Norte 16 Norte 0 -- -- 85
2021-01-04 03:00:00 0.6 6 Norte 14 Norte 0 -- -- 83
2021-01-04 02:00:00 0 3 Norte 11 Noroeste 0 -- -- 88
2021-01-04 01:00:00 1.1 4 Norte 11 Noroeste 0 -- -- 82
2021-01-04 00:00:00 1.1 4 Norte 10 Norte 0 -- -- 83
2021-01-03 23:00:00 0.8 4 Noroeste 9 Oeste 0 -- -- 88
2021-01-03 22:00:00 0.3 3 Norte 7 Sudoeste 0 -- -- 94
2021-01-03 21:00:00 0.5 5 Norte 9 Norte 0 -- -- 96
2021-01-03 20:00:00 0.6 3 Norte 9 Sur 0 -- -- 95
2021-01-03 19:00:00 1.2 4 Sudoeste 22 Nordeste 0.6 -- -- 92
2021-01-03 18:00:00 1.8 14 Nordeste 26 Norte 1 -- -- 90
2021-01-03 17:00:00 2.8 7 Norte 17 Noroeste 0 -- -- 79
2021-01-03 16:00:00 2.2 11 Norte 23 Norte 0 -- -- 81
2021-01-03 15:00:00 1.9 7 Norte 21 Noroeste 0 -- -- 80
2021-01-03 14:00:00 2.4 4 Norte 15 Noroeste 0.6 -- -- 79
2021-01-03 13:00:00 1.9 5 Norte 16 Noroeste 1.6 -- -- 79
2021-01-03 12:00:00 1.3 4 Noroeste 11 Oeste 0.4 -- -- 82
2021-01-03 11:00:00 1.1 4 Norte 11 Oeste 0.2 -- -- 94
2021-01-03 10:00:00 0 2 Noroeste 7 Norte 0.8 -- -- 96
2021-01-03 09:00:00 -0.5 2 Noroeste 8 Sudoeste 0.4 -- -- 96
2021-01-03 08:00:00 -0.5 3 Noroeste 8 Noroeste 0 -- -- 94
2021-01-03 07:00:00 0.1 4 Norte 8 Oeste 0 -- -- 96
2021-01-03 06:00:00 -0.4 3 Oeste 7 Oeste 0 -- -- 94
2021-01-03 05:00:00 -0.5 3 Norte 10 Oeste 0 -- -- 96
2021-01-03 04:00:00 0.3 3 Norte 12 Norte 0.2 -- -- 92
2021-01-03 03:00:00 0.3 5 Norte 10 Noroeste 0.2 -- -- 97
2021-01-03 02:00:00 -0.1 3 Norte 8 Oeste 0.2 -- -- 96
2021-01-03 01:00:00 0.1 2 Noroeste 6 Noroeste 0.2 -- -- 95
2021-01-03 00:00:00 0 0 Calma 5 Oeste 0 -- -- 95
2021-01-02 23:00:00 0.2 3 Noroeste 11 Norte 0 -- -- 93
2021-01-02 22:00:00 0.1 3 Norte 14 Oeste 0 -- -- 90
2021-01-02 21:00:00 1.1 7 Oeste 21 Noroeste 0 -- -- 81
2021-01-02 20:00:00 0.8 5 Oeste 19 Norte 0 -- -- 83
2021-01-02 19:00:00 1.5 10 Noroeste 27 Oeste 0 -- -- 78
2021-01-02 18:00:00 1.2 6 Noroeste 22 Norte 0.2 -- -- 80
2021-01-02 17:00:00 1.5 9 Noroeste 26 Norte 0.2 -- -- 80
2021-01-02 16:00:00 1.7 11 Noroeste 28 Oeste 0 -- -- 82
2021-01-02 15:00:00 1.2 8 Noroeste 32 Noroeste 0 -- -- 97
2021-01-02 14:00:00 1.7 9 Noroeste 26 Noroeste 0 -- -- 96